createdAt,value
2023-11-22T00:01:00.990Z,5.47
2023-11-22T00:03:34.221Z,1.90
2023-11-22T00:06:03.737Z,2.40
2023-11-22T00:08:35.656Z,4.10
2023-11-22T00:11:07.868Z,3.67
2023-11-22T00:13:39.556Z,5.77
2023-11-22T00:16:11.902Z,9.20
2023-11-22T00:18:42.231Z,8.13
2023-11-22T00:21:18.494Z,9.40
2023-11-22T00:23:48.603Z,2.47
2023-11-22T00:26:22.299Z,3.63
2023-11-22T00:28:58.393Z,13.63
2023-11-22T00:31:32.441Z,3.37
2023-11-22T00:34:01.731Z,3.03
2023-11-22T00:36:31.957Z,1.80
2023-11-22T00:39:01.487Z,6.03
2023-11-22T00:41:36.784Z,3.93
2023-11-22T00:44:07.251Z,2.83
2023-11-22T00:47:01.068Z,2.20
2023-11-22T00:49:35.478Z,2.77
2023-11-22T00:52:05.098Z,2.70
2023-11-22T00:54:34.336Z,2.30
2023-11-22T00:57:09.436Z,8.03
2023-11-22T00:59:39.954Z,4.90
2023-11-22T01:02:28.239Z,1.63
2023-11-22T01:04:57.931Z,3.33
2023-11-22T01:07:49.028Z,7.97
2023-11-22T01:10:19.880Z,2.43
2023-11-22T01:12:51.195Z,2.40
2023-11-22T01:15:21.384Z,4.07
2023-11-22T01:17:50.949Z,1.83
2023-11-22T01:20:24.033Z,3.80
2023-11-22T01:22:53.574Z,1.43
2023-11-22T01:25:24.020Z,3.03
2023-11-22T01:27:54.863Z,4.73
2023-11-22T01:30:30.056Z,2.33
2023-11-22T01:32:59.529Z,4.03
2023-11-22T01:35:57.295Z,2.07
2023-11-22T01:38:28.535Z,2.13
2023-11-22T01:40:57.970Z,3.53
2023-11-22T01:43:30.440Z,4.03
2023-11-22T01:46:01.840Z,2.93
2023-11-22T01:48:31.782Z,1.60
2023-11-22T01:51:02.715Z,3.97
2023-11-22T01:53:33.459Z,2.23
2023-11-22T01:56:06.260Z,3.00
2023-11-22T01:58:37.274Z,6.47
2023-11-22T02:01:08.179Z,2.40
2023-11-22T02:03:37.995Z,2.63
2023-11-22T02:06:10.856Z,4.73
2023-11-22T02:08:40.202Z,3.57
2023-11-22T02:11:09.616Z,2.07
2023-11-22T02:13:40.503Z,2.60
2023-11-22T02:16:11.857Z,1.90
2023-11-22T02:18:43.250Z,3.43
2023-11-22T02:25:35.151Z,2.13
2023-11-22T02:28:04.608Z,3.87
2023-11-22T02:30:40.331Z,3.50
2023-11-22T02:33:10.243Z,1.43
2023-11-22T02:35:42.028Z,2.23
2023-11-22T02:38:11.883Z,3.87
2023-11-22T02:40:45.829Z,2.43
2023-11-22T02:43:16.193Z,4.23
2023-11-22T02:45:46.060Z,2.20
2023-11-22T02:48:15.744Z,3.67
2023-11-22T02:50:45.235Z,2.63
2023-11-22T02:53:16.635Z,8.10
2023-11-22T02:55:47.395Z,1.73
2023-11-22T02:58:17.845Z,8.87
2023-11-22T03:00:56.052Z,1.50
2023-11-22T03:03:26.273Z,2.07
2023-11-22T03:06:46.651Z,4.43
2023-11-22T03:10:25.851Z,5.77
2023-11-22T03:12:56.492Z,3.47
2023-11-22T03:15:25.973Z,3.63
2023-11-22T03:18:04.400Z,1.87
2023-11-22T03:20:34.063Z,2.73
2023-11-22T03:23:04.291Z,2.40
2023-11-22T03:25:34.741Z,2.63
2023-11-22T03:28:20.713Z,7.50
2023-11-22T03:30:49.961Z,2.27
2023-11-22T03:33:19.318Z,1.70
2023-11-22T03:35:48.582Z,1.93
2023-11-22T03:38:20.048Z,2.43
2023-11-22T03:40:50.094Z,2.27
2023-11-22T03:47:13.557Z,1.70
2023-11-22T03:49:44.014Z,2.30
2023-11-22T03:52:15.338Z,3.23
2023-11-22T03:54:45.230Z,2.83
2023-11-22T03:57:14.507Z,2.60
2023-11-22T03:59:44.221Z,6.03
2023-11-22T04:02:14.876Z,4.00
2023-11-22T04:04:44.520Z,3.73
2023-11-22T04:07:14.084Z,2.30
2023-11-22T04:09:44.075Z,1.97
2023-11-22T04:12:13.528Z,5.23
2023-11-22T04:14:44.150Z,3.87
2023-11-22T04:17:15.464Z,4.63
2023-11-22T04:19:45.287Z,3.40
2023-11-22T04:22:15.896Z,7.03
2023-11-22T04:24:46.933Z,2.87
2023-11-22T04:27:16.628Z,3.97
2023-11-22T04:29:46.752Z,3.20
2023-11-22T04:32:17.592Z,2.73
2023-11-22T04:34:48.557Z,2.67
2023-11-22T04:37:18.973Z,2.67
2023-11-22T04:39:54.272Z,3.37
2023-11-22T04:42:24.066Z,4.27
2023-11-22T04:44:53.486Z,3.07
2023-11-22T04:47:30.758Z,4.60
2023-11-22T04:50:28.897Z,5.07
2023-11-22T04:52:59.789Z,2.57
2023-11-22T04:55:29.479Z,3.40
2023-11-22T04:57:59.494Z,2.67
2023-11-22T05:00:28.953Z,1.80
2023-11-22T05:03:00.953Z,2.30
2023-11-22T05:05:30.284Z,2.37
2023-11-22T05:08:05.942Z,3.60
2023-11-22T05:10:36.745Z,3.37
2023-11-22T05:13:07.281Z,2.43
2023-11-22T05:15:36.647Z,1.67
2023-11-22T05:18:08.747Z,8.40
2023-11-22T05:20:38.191Z,6.27
2023-11-22T05:23:07.537Z,2.30
2023-11-22T05:25:37.017Z,3.70
2023-11-22T05:28:06.312Z,3.77
2023-11-22T05:30:36.285Z,3.17
2023-11-22T05:33:09.281Z,2.97
2023-11-22T05:35:41.068Z,3.60
2023-11-22T05:38:11.715Z,2.13
2023-11-22T05:40:42.847Z,4.37
2023-11-22T05:43:40.432Z,3.23
2023-11-22T05:46:10.402Z,6.17
2023-11-22T05:48:45.968Z,3.90
2023-11-22T05:51:15.507Z,3.03
2023-11-22T05:53:45.985Z,3.73
2023-11-22T05:56:16.189Z,3.23
2023-11-22T05:58:47.800Z,3.67
2023-11-22T06:01:23.503Z,6.10
2023-11-22T06:04:08.389Z,1.57
2023-11-22T06:06:43.843Z,4.00
2023-11-22T06:09:20.487Z,1.67
2023-11-22T06:11:52.515Z,5.17
2023-11-22T06:14:24.337Z,2.43
2023-11-22T06:16:56.497Z,2.77
2023-11-22T06:19:35.680Z,7.73
2023-11-22T06:22:05.106Z,9.87
2023-11-22T06:24:40.856Z,12.37
2023-11-22T06:27:10.063Z,6.67
2023-11-22T06:29:40.469Z,15.07
2023-11-22T06:32:10.760Z,6.27
2023-11-22T06:34:42.010Z,5.67
2023-11-22T06:37:11.359Z,7.03
2023-11-22T06:39:40.971Z,10.93
2023-11-22T06:42:10.292Z,6.63
2023-11-22T06:44:55.124Z,5.27
2023-11-22T06:47:25.191Z,9.13
2023-11-22T06:50:05.516Z,4.83
2023-11-22T06:52:35.503Z,5.70
2023-11-22T06:55:05.977Z,3.30
2023-11-22T06:57:36.101Z,4.63
2023-11-22T07:00:22.835Z,2.73
2023-11-22T07:02:53.815Z,6.73
2023-11-22T07:05:37.831Z,6.20
2023-11-22T07:08:07.167Z,5.10
2023-11-22T07:10:36.595Z,5.13
2023-11-22T07:13:05.986Z,4.10
2023-11-22T07:15:35.576Z,3.93
2023-11-22T07:18:06.517Z,8.17
2023-11-22T07:20:37.368Z,5.27
2023-11-22T07:23:06.757Z,6.80
2023-11-22T07:25:36.237Z,4.60
2023-11-22T07:28:05.581Z,8.80
2023-11-22T07:30:35.283Z,6.30
2023-11-22T07:33:04.778Z,9.90
2023-11-22T07:35:34.498Z,4.50
2023-11-22T07:38:07.415Z,4.63
2023-11-22T07:40:37.602Z,6.87
2023-11-22T07:43:08.711Z,4.90
2023-11-22T07:45:38.534Z,6.97
2023-11-22T07:48:08.235Z,6.23
2023-11-22T07:50:39.083Z,5.40
2023-11-22T07:53:10.215Z,6.33
2023-11-22T07:55:39.724Z,6.90
2023-11-22T07:58:10.527Z,6.37
2023-11-22T08:00:43.084Z,4.70
2023-11-22T08:03:16.580Z,5.27
2023-11-22T08:05:49.435Z,4.13
2023-11-22T08:08:20.936Z,6.33
2023-11-22T08:11:04.519Z,5.50
2023-11-22T08:13:33.715Z,5.27
2023-11-22T08:16:03.253Z,5.87
2023-11-22T08:18:33.097Z,6.30
2023-11-22T08:21:02.681Z,6.80
2023-11-22T08:23:33.974Z,11.10
2023-11-22T08:26:03.962Z,10.00
2023-11-22T08:28:33.368Z,6.83
2023-11-22T08:31:05.480Z,7.90
2023-11-22T08:33:38.531Z,5.83
2023-11-22T08:36:09.960Z,7.80
2023-11-22T08:38:42.713Z,6.50
2023-11-22T08:41:15.011Z,6.90
2023-11-22T08:43:44.720Z,5.13
2023-11-22T08:46:22.282Z,5.20
2023-11-22T08:48:52.958Z,5.10
2023-11-22T08:51:22.714Z,6.27
2023-11-22T08:53:53.422Z,4.70
2023-11-22T08:56:24.370Z,4.27
2023-11-22T08:59:00.764Z,7.77
2023-11-22T09:01:30.878Z,8.57
2023-11-22T09:04:30.617Z,6.00
2023-11-22T09:06:59.856Z,4.50
2023-11-22T09:09:32.833Z,6.57
2023-11-22T09:12:02.665Z,4.70
2023-11-22T09:14:33.237Z,5.10
2023-11-22T09:17:06.265Z,5.00
2023-11-22T09:19:37.007Z,7.00
2023-11-22T09:22:08.331Z,6.27
2023-11-22T09:24:41.265Z,12.97
2023-11-22T09:27:19.201Z,7.13
2023-11-22T09:29:51.018Z,9.03
2023-11-22T09:32:20.363Z,12.97
2023-11-22T09:34:56.563Z,10.63
2023-11-22T09:37:26.244Z,6.50
2023-11-22T09:39:57.371Z,5.40
2023-11-22T09:42:28.881Z,8.20
2023-11-22T09:44:58.296Z,6.73
2023-11-22T09:47:41.760Z,8.30
2023-11-22T09:50:15.143Z,5.87
2023-11-22T09:52:49.632Z,5.43
2023-11-22T09:55:23.277Z,6.30
2023-11-22T09:57:55.285Z,15.37
2023-11-22T10:00:28.528Z,7.53
2023-11-22T10:02:58.557Z,6.87
2023-11-22T10:05:33.065Z,10.30
2023-11-22T10:08:05.427Z,8.80
2023-11-22T10:10:38.384Z,7.13
2023-11-22T10:13:12.184Z,18.50
2023-11-22T10:15:42.927Z,5.90
2023-11-22T10:18:15.231Z,10.40
2023-11-22T10:20:47.920Z,11.17
2023-11-22T10:23:25.920Z,6.17
2023-11-22T10:25:56.932Z,8.10
2023-11-22T10:28:31.546Z,7.70
2023-11-22T10:31:01.072Z,12.23
2023-11-22T10:33:32.369Z,9.80
2023-11-22T10:36:03.936Z,7.93
2023-11-22T10:38:33.256Z,5.67
2023-11-22T10:41:11.669Z,8.33
2023-11-22T10:43:46.229Z,9.43
2023-11-22T10:46:18.445Z,6.30
2023-11-22T10:48:48.123Z,8.53
2023-11-22T10:51:20.177Z,6.27
2023-11-22T10:53:51.718Z,12.40
2023-11-22T10:56:23.126Z,10.43
2023-11-22T10:58:56.970Z,7.53
2023-11-22T11:01:30.611Z,5.17
2023-11-22T11:04:07.812Z,6.77
2023-11-22T11:06:39.114Z,5.40
2023-11-22T11:09:10.209Z,12.60
2023-11-22T11:11:43.282Z,5.00
2023-11-22T11:14:14.489Z,9.07
2023-11-22T11:16:49.165Z,4.67
2023-11-22T11:19:20.643Z,5.23
2023-11-22T11:21:50.463Z,6.30
2023-11-22T11:24:26.011Z,11.87
2023-11-22T11:26:57.021Z,5.67
2023-11-22T11:29:35.524Z,10.73
2023-11-22T11:32:05.969Z,5.37
2023-11-22T11:34:42.562Z,6.40
2023-11-22T11:37:14.847Z,5.23
2023-11-22T11:39:44.573Z,4.77
2023-11-22T11:42:22.393Z,11.80
2023-11-22T11:45:11.322Z,4.70
2023-11-22T11:47:40.668Z,5.07
2023-11-22T11:50:10.618Z,7.10
2023-11-22T11:52:42.369Z,4.63
2023-11-22T11:55:11.689Z,10.37
2023-11-22T11:57:44.737Z,4.20
2023-11-22T12:00:16.612Z,5.23
2023-11-22T12:02:46.052Z,11.73
2023-11-22T12:05:16.115Z,5.33
2023-11-22T12:07:45.463Z,4.73
2023-11-22T12:10:16.559Z,6.43
2023-11-22T12:12:49.282Z,4.20
2023-11-22T12:15:18.702Z,7.33
2023-11-22T12:17:52.369Z,3.37
2023-11-22T12:20:22.893Z,1.90
2023-11-22T12:22:54.408Z,4.50
2023-11-22T12:25:24.111Z,4.17
2023-11-22T12:27:57.445Z,8.70
2023-11-22T12:30:34.243Z,6.23
2023-11-22T12:33:05.019Z,5.50
2023-11-22T12:35:35.260Z,3.73
2023-11-22T12:38:18.441Z,5.27
2023-11-22T12:40:49.146Z,2.97
2023-11-22T12:43:20.029Z,3.97
2023-11-22T12:45:52.169Z,4.23
2023-11-22T12:48:26.356Z,5.87
2023-11-22T12:50:56.195Z,3.13
2023-11-22T12:53:29.082Z,6.60
2023-11-22T12:55:59.651Z,4.87
2023-11-22T12:58:31.370Z,2.40
2023-11-22T13:01:02.030Z,15.00
2023-11-22T13:03:33.120Z,5.77
2023-11-22T13:06:05.300Z,2.90
2023-11-22T13:08:37.006Z,5.27
2023-11-22T13:11:11.297Z,1.97
2023-11-22T13:13:43.598Z,3.93
2023-11-22T13:16:20.133Z,2.30
2023-11-22T13:18:50.316Z,12.20
2023-11-22T13:21:20.270Z,11.77
2023-11-22T13:23:52.428Z,3.17
2023-11-22T13:26:24.159Z,2.10
2023-11-22T13:28:56.517Z,1.47
2023-11-22T13:31:26.969Z,1.90
2023-11-22T13:33:56.409Z,1.00
2023-11-22T13:36:27.131Z,1.17
2023-11-22T13:38:57.678Z,0.93
2023-11-22T13:41:37.139Z,1.03
2023-11-22T13:44:08.447Z,1.43
2023-11-22T13:46:41.229Z,1.53
2023-11-22T13:49:10.500Z,0.60
2023-11-22T13:51:42.266Z,0.90
2023-11-22T13:54:12.948Z,1.50
2023-11-22T13:56:42.391Z,1.23
2023-11-22T13:59:15.757Z,0.73
2023-11-22T14:01:48.213Z,0.57
2023-11-22T14:04:18.941Z,1.70
2023-11-22T14:06:51.106Z,1.33
2023-11-22T14:09:20.938Z,2.93
2023-11-22T14:11:56.740Z,1.00
2023-11-22T14:14:27.590Z,1.87
2023-11-22T14:16:57.099Z,1.37
2023-11-22T14:19:27.693Z,0.87
2023-11-22T14:21:56.977Z,0.63
2023-11-22T14:24:30.535Z,2.50
2023-11-22T14:27:01.746Z,1.60
2023-11-22T14:29:34.122Z,0.67
2023-11-22T14:32:03.649Z,1.40
2023-11-22T14:34:34.390Z,1.13
2023-11-22T14:37:04.907Z,1.03
2023-11-22T14:39:38.393Z,0.40
2023-11-22T14:42:08.736Z,0.50
2023-11-22T14:44:40.762Z,0.93
2023-11-22T14:47:17.720Z,0.90
2023-11-22T14:49:47.772Z,0.73
2023-11-22T14:52:18.264Z,0.90
2023-11-22T14:54:47.545Z,0.80
2023-11-22T14:57:18.496Z,1.27
2023-11-22T14:59:51.851Z,2.00
2023-11-22T15:02:22.066Z,0.87
2023-11-22T15:04:52.885Z,0.83
2023-11-22T15:07:23.425Z,0.53
2023-11-22T15:09:54.342Z,2.27
2023-11-22T15:12:24.457Z,0.90
2023-11-22T15:14:55.335Z,2.00
2023-11-22T15:17:27.086Z,1.03
2023-11-22T15:19:56.479Z,1.80
2023-11-22T15:22:25.748Z,1.10
2023-11-22T15:24:55.151Z,1.07
2023-11-22T15:27:25.673Z,3.17
2023-11-22T15:29:56.368Z,2.37
2023-11-22T15:32:25.858Z,1.87
2023-11-22T15:34:55.695Z,2.00
2023-11-22T15:37:26.675Z,2.13
2023-11-22T15:39:56.733Z,2.37
2023-11-22T15:42:25.998Z,2.33
2023-11-22T15:44:56.640Z,2.37
2023-11-22T15:47:26.394Z,3.90
2023-11-22T15:49:55.928Z,2.20
2023-11-22T15:52:27.976Z,1.50
2023-11-22T15:54:57.290Z,2.10
2023-11-22T15:57:27.222Z,1.70
2023-11-22T15:59:58.147Z,4.13
2023-11-22T16:02:28.777Z,0.93
2023-11-22T16:05:00.294Z,1.57
2023-11-22T16:07:29.939Z,6.03
2023-11-22T16:10:00.846Z,1.37
2023-11-22T16:12:33.551Z,3.40
2023-11-22T16:15:04.548Z,1.87
2023-11-22T16:17:36.845Z,3.60
2023-11-22T16:20:12.027Z,1.00
2023-11-22T16:22:45.740Z,3.40
2023-11-22T16:25:19.668Z,1.30
2023-11-22T16:27:49.513Z,1.60
2023-11-22T16:30:22.473Z,2.33
2023-11-22T16:32:53.323Z,2.47
2023-11-22T16:35:25.105Z,2.40
2023-11-22T16:37:54.436Z,2.40
2023-11-22T16:40:24.011Z,6.90
2023-11-22T16:42:53.324Z,4.40
2023-11-22T16:45:23.937Z,2.73
2023-11-22T16:47:55.948Z,2.47
2023-11-22T16:50:31.292Z,13.37
2023-11-22T16:53:00.694Z,3.77
2023-11-22T16:55:30.318Z,2.77
2023-11-22T16:58:03.128Z,2.40
2023-11-22T17:00:35.284Z,4.13
2023-11-22T17:03:07.636Z,1.83
2023-11-22T17:05:37.679Z,2.80
2023-11-22T17:08:07.589Z,1.80
2023-11-22T17:10:46.193Z,2.27
2023-11-22T17:13:18.992Z,7.33
2023-11-22T17:15:51.230Z,1.93
2023-11-22T17:18:20.690Z,2.90
2023-11-22T17:20:50.171Z,6.93
2023-11-22T17:23:20.821Z,1.87
2023-11-22T17:25:50.408Z,2.90
2023-11-22T17:28:23.018Z,4.67
2023-11-22T17:30:55.282Z,0.93
2023-11-22T17:33:27.216Z,2.03
2023-11-22T17:35:56.521Z,1.73
2023-11-22T17:38:28.236Z,3.63
2023-11-22T17:40:58.508Z,2.37
2023-11-22T17:43:27.768Z,2.57
2023-11-22T17:45:59.211Z,3.47
2023-11-22T17:48:29.606Z,2.80
2023-11-22T17:50:59.813Z,2.43
2023-11-22T17:53:29.490Z,2.43
2023-11-22T17:56:25.048Z,9.23
2023-11-22T17:58:57.299Z,3.70
2023-11-22T18:01:29.366Z,3.83
2023-11-22T18:03:59.221Z,1.90
2023-11-22T18:06:30.818Z,2.10
2023-11-22T18:09:00.388Z,2.77
2023-11-22T18:11:31.525Z,3.73
2023-11-22T18:14:04.107Z,2.47
2023-11-22T18:16:35.222Z,7.10
2023-11-22T18:19:05.238Z,2.90
2023-11-22T18:21:35.084Z,4.17
2023-11-22T18:24:04.845Z,5.90
2023-11-22T18:26:35.681Z,5.00
2023-11-22T18:29:06.001Z,3.03
2023-11-22T18:31:36.991Z,4.07
2023-11-22T18:34:08.631Z,2.70
2023-11-22T18:36:40.883Z,2.33
2023-11-22T18:39:11.917Z,2.33
2023-11-22T18:41:43.981Z,5.93
2023-11-22T18:44:13.592Z,4.40
2023-11-22T18:46:46.107Z,2.60
2023-11-22T18:49:15.650Z,2.03
2023-11-22T18:51:44.868Z,2.67
2023-11-22T18:54:14.635Z,5.80
2023-11-22T18:56:45.372Z,4.33
2023-11-22T18:59:28.832Z,3.73
2023-11-22T19:02:00.463Z,2.50
2023-11-22T19:04:29.911Z,3.40
2023-11-22T19:06:59.459Z,3.63
2023-11-22T19:09:28.994Z,0.93
2023-11-22T19:12:23.837Z,3.90
2023-11-22T19:14:54.143Z,2.80
2023-11-22T19:17:31.223Z,5.33
2023-11-22T19:20:06.630Z,5.97
2023-11-22T19:22:42.555Z,5.03
2023-11-22T19:25:21.278Z,3.23
2023-11-22T19:27:56.585Z,4.37
2023-11-22T19:30:31.046Z,5.77
2023-11-22T19:33:07.726Z,4.00
2023-11-22T19:35:43.396Z,4.93
2023-11-22T19:38:19.177Z,2.73
2023-11-22T19:40:55.968Z,4.27
2023-11-22T19:43:31.205Z,3.50
2023-11-22T19:46:05.446Z,4.03
2023-11-22T19:48:40.784Z,4.47
2023-11-22T19:51:17.501Z,4.40
2023-11-22T19:53:51.408Z,4.23
2023-11-22T19:56:22.389Z,4.97
2023-11-22T19:58:52.409Z,3.03
2023-11-22T20:01:28.369Z,4.73
2023-11-22T20:04:00.809Z,6.17
2023-11-22T20:06:35.704Z,3.83
2023-11-22T20:09:11.226Z,3.03
2023-11-22T20:11:46.308Z,4.20
2023-11-22T20:14:21.801Z,2.93
2023-11-22T20:16:55.227Z,6.13
2023-11-22T20:19:32.888Z,1.83
2023-11-22T20:22:03.297Z,2.63
2023-11-22T20:24:42.527Z,5.23
2023-11-22T20:27:16.919Z,4.03
2023-11-22T20:29:55.228Z,4.07
2023-11-22T20:32:29.106Z,3.17
2023-11-22T20:35:07.893Z,4.23
2023-11-22T20:37:38.424Z,3.50
2023-11-22T20:40:16.028Z,4.17
2023-11-22T20:42:53.086Z,5.13
2023-11-22T20:45:24.573Z,4.30
2023-11-22T20:47:58.010Z,5.80
2023-11-22T20:50:29.154Z,4.17
2023-11-22T20:53:01.110Z,4.77
2023-11-22T20:55:32.464Z,8.27
2023-11-22T20:58:02.979Z,4.40
2023-11-22T21:00:32.794Z,3.20
2023-11-22T21:03:02.318Z,9.73
2023-11-22T21:05:33.553Z,6.00
2023-11-22T21:08:06.131Z,5.43
2023-11-22T21:10:44.960Z,5.33
2023-11-22T21:13:14.574Z,4.93
2023-11-22T21:15:52.865Z,4.47
2023-11-22T21:18:23.209Z,8.20
2023-11-22T21:21:19.654Z,4.43
2023-11-22T21:23:50.100Z,11.50
2023-11-22T21:26:19.702Z,8.10
2023-11-22T21:28:50.698Z,8.87
2023-11-22T21:31:20.311Z,6.63
2023-11-22T21:33:50.468Z,9.13
2023-11-22T21:36:21.508Z,6.70
2023-11-22T21:38:51.953Z,7.60
2023-11-22T21:41:24.193Z,8.70
2023-11-22T21:43:56.991Z,10.63
2023-11-22T21:46:26.583Z,7.87
2023-11-22T21:49:01.505Z,7.13
2023-11-22T21:54:24.541Z,9.00
2023-11-22T21:56:53.829Z,13.47
2023-11-22T21:59:23.960Z,11.20
2023-11-22T22:01:53.571Z,7.97
2023-11-22T22:04:24.950Z,18.77
2023-11-22T22:06:55.617Z,16.87
2023-11-22T22:09:25.015Z,11.03
2023-11-22T22:11:54.537Z,17.73
2023-11-22T22:14:24.025Z,13.87
2023-11-22T22:16:53.503Z,14.23
2023-11-22T22:19:26.370Z,14.47
2023-11-22T22:21:57.089Z,15.20
2023-11-22T22:24:26.587Z,6.33
2023-11-22T22:26:56.041Z,12.10
2023-11-22T22:29:50.854Z,6.07
2023-11-22T22:32:20.233Z,14.20
2023-11-22T22:34:49.422Z,12.17
2023-11-22T22:37:20.118Z,16.67
2023-11-22T22:39:51.403Z,15.03
2023-11-22T22:42:20.739Z,18.37
2023-11-22T22:44:52.315Z,6.53
2023-11-22T22:47:21.638Z,13.77
2023-11-22T22:49:51.405Z,14.30
2023-11-22T22:52:23.180Z,17.77
2023-11-22T22:54:52.810Z,14.30
2023-11-22T22:57:22.741Z,15.67
2023-11-22T22:59:51.950Z,11.13
2023-11-22T23:02:22.978Z,7.40
2023-11-22T23:04:54.222Z,15.60
2023-11-22T23:07:26.821Z,11.53
2023-11-22T23:09:57.641Z,18.63
2023-11-22T23:12:49.917Z,15.27
2023-11-22T23:15:19.908Z,17.20
2023-11-22T23:17:57.104Z,17.63
2023-11-22T23:20:28.486Z,17.33
2023-11-22T23:23:03.174Z,17.27
2023-11-22T23:25:33.065Z,15.00
2023-11-22T23:28:02.355Z,18.07
2023-11-22T23:30:32.890Z,21.53
2023-11-22T23:33:02.296Z,15.07
2023-11-22T23:35:32.321Z,17.53
2023-11-22T23:38:03.577Z,20.20
2023-11-22T23:40:33.291Z,19.67
2023-11-22T23:43:04.881Z,10.03
2023-11-22T23:45:34.571Z,22.27
2023-11-22T23:48:07.253Z,17.90
2023-11-22T23:50:37.292Z,23.80
2023-11-22T23:53:11.441Z,19.87
2023-11-22T23:56:11.407Z,10.57
2023-11-22T23:58:40.856Z,14.10
